createdAt,value
2023-01-17T00:02:47.220Z,1.40
2023-01-17T00:08:07.944Z,1.27
2023-01-17T00:13:10.665Z,1.27
2023-01-17T00:18:12.822Z,1.43
2023-01-17T00:23:39.713Z,1.30
2023-01-17T00:28:44.044Z,1.60
2023-01-17T00:33:46.096Z,1.50
2023-01-17T00:38:48.497Z,1.48
2023-01-17T00:44:09.324Z,1.65
2023-01-17T00:49:30.394Z,1.30
2023-01-17T00:54:51.536Z,1.20
2023-01-17T01:00:12.739Z,1.15
2023-01-17T01:05:37.376Z,1.10
2023-01-17T01:10:59.592Z,1.25
2023-01-17T01:16:22.567Z,1.55
2023-01-17T01:21:43.856Z,1.50
2023-01-17T01:27:05.287Z,1.15
2023-01-17T01:32:26.165Z,2.00
2023-01-17T01:37:28.477Z,1.40
2023-01-17T01:42:30.665Z,1.55
2023-01-17T01:47:40.722Z,1.60
2023-01-17T01:52:47.810Z,1.25
2023-01-17T01:57:55.235Z,1.70
2023-01-17T02:03:02.517Z,1.40
2023-01-17T02:08:08.049Z,1.10
2023-01-17T02:13:12.339Z,1.25
2023-01-17T02:18:46.610Z,1.55
2023-01-17T02:24:31.995Z,1.75
2023-01-17T02:29:54.658Z,1.30
2023-01-17T02:35:02.600Z,2.30
2023-01-17T02:40:21.225Z,1.50
2023-01-17T02:45:23.404Z,1.27
2023-01-17T02:50:32.911Z,0.93
2023-01-17T02:55:57.837Z,1.17
2023-01-17T03:01:21.312Z,1.23
2023-01-17T03:11:29.433Z,1.20
2023-01-17T03:16:34.041Z,1.67
2023-01-17T03:21:36.600Z,0.93
2023-01-17T03:31:40.936Z,0.97
2023-01-17T03:36:43.519Z,1.15
2023-01-17T03:46:47.780Z,1.27
2023-01-17T03:51:49.908Z,0.95
2023-01-17T03:56:52.031Z,1.10
2023-01-17T04:01:54.231Z,1.08
2023-01-17T04:06:56.437Z,1.23
2023-01-17T04:12:00.767Z,1.55
2023-01-17T04:17:04.595Z,1.13
2023-01-17T04:22:06.920Z,1.07
2023-01-17T04:27:10.464Z,1.50
2023-01-17T04:32:15.035Z,1.30
2023-01-17T04:37:17.622Z,1.37
2023-01-17T04:42:20.261Z,1.20
2023-01-17T04:52:25.867Z,1.93
2023-01-17T04:57:27.971Z,1.03
2023-01-17T05:02:30.182Z,2.03
2023-01-17T05:07:33.876Z,1.52
2023-01-17T05:12:37.624Z,1.57
2023-01-17T05:22:41.991Z,1.40
2023-01-17T05:27:44.157Z,1.77
2023-01-17T05:32:50.838Z,1.08
2023-01-17T05:37:53.441Z,1.57
2023-01-17T05:42:58.132Z,1.47
2023-01-17T05:48:01.689Z,1.50
2023-01-17T05:53:13.109Z,1.20
2023-01-17T05:58:18.720Z,1.53
2023-01-17T06:03:21.501Z,1.00
2023-01-17T06:08:23.925Z,2.45
2023-01-17T06:13:26.551Z,2.35
2023-01-17T06:23:30.903Z,1.10
2023-01-17T06:28:33.068Z,1.50
2023-01-17T06:33:35.326Z,1.58
2023-01-17T06:38:37.640Z,1.30
2023-01-17T06:43:40.278Z,2.47
2023-01-17T06:53:48.820Z,1.27
2023-01-17T06:58:51.995Z,1.40
2023-01-17T07:03:54.709Z,1.50
2023-01-17T07:08:57.340Z,1.27
2023-01-17T07:19:01.847Z,1.65
2023-01-17T07:24:04.256Z,1.60
2023-01-17T07:29:06.787Z,1.48
2023-01-17T07:39:11.236Z,1.70
2023-01-17T07:44:13.851Z,2.08
2023-01-17T07:54:18.568Z,2.40
2023-01-17T07:59:20.834Z,1.30
2023-01-17T08:04:26.223Z,1.40
2023-01-17T08:09:28.386Z,1.50
2023-01-17T08:14:30.512Z,1.52
2023-01-17T08:19:32.583Z,1.23
2023-01-17T08:24:35.406Z,1.15
2023-01-17T08:29:37.613Z,1.30
2023-01-17T08:34:39.698Z,1.65
2023-01-17T08:39:42.259Z,1.20
2023-01-17T08:44:44.381Z,1.80
2023-01-17T08:49:46.515Z,1.60
2023-01-17T08:54:48.600Z,2.08
2023-01-17T08:59:51.029Z,1.60
2023-01-17T09:09:55.881Z,2.17
2023-01-17T09:14:58.181Z,6.75
2023-01-17T09:20:00.708Z,6.95
2023-01-17T09:30:05.571Z,6.17
2023-01-17T09:35:08.617Z,3.93
2023-01-17T09:40:22.796Z,2.80
2023-01-17T09:45:28.406Z,2.60
2023-01-17T09:50:43.919Z,2.20
2023-01-17T09:56:03.475Z,2.90
2023-01-17T10:01:48.357Z,1.83
2023-01-17T10:07:08.098Z,2.40
2023-01-17T10:12:33.179Z,2.00
2023-01-17T10:17:46.444Z,2.40
2023-01-17T10:23:12.517Z,2.20
2023-01-17T10:28:27.220Z,2.25
2023-01-17T10:33:37.976Z,2.30
2023-01-17T10:38:44.396Z,1.70
2023-01-17T10:43:59.500Z,2.00
2023-01-17T10:49:03.608Z,1.90
2023-01-17T10:54:40.727Z,1.30
2023-01-17T10:59:44.143Z,1.75
2023-01-17T11:04:51.010Z,2.37
2023-01-17T11:09:55.854Z,2.43
2023-01-17T11:15:10.192Z,2.57
2023-01-17T11:20:12.216Z,3.37
2023-01-17T11:25:24.943Z,2.50
2023-01-17T11:30:29.379Z,3.40
2023-01-17T11:35:36.376Z,3.23
2023-01-17T11:40:43.854Z,3.60
2023-01-17T11:46:00.889Z,2.80
2023-01-17T11:51:04.668Z,2.57
2023-01-17T11:56:08.920Z,2.70
2023-01-17T12:01:47.959Z,2.93
2023-01-17T12:07:08.018Z,3.50
2023-01-17T12:13:11.605Z,2.00
2023-01-17T12:18:13.673Z,2.20
2023-01-17T12:23:57.546Z,1.73
2023-01-17T12:29:05.695Z,1.92
2023-01-17T12:34:22.460Z,1.55
2023-01-17T12:39:39.711Z,2.25
2023-01-17T12:45:21.456Z,1.65
2023-01-17T12:50:26.415Z,2.50
2023-01-17T12:55:58.183Z,2.15
2023-01-17T13:01:06.687Z,1.50
2023-01-17T13:06:22.386Z,2.55
2023-01-17T13:11:30.620Z,1.60
2023-01-17T13:16:46.513Z,1.50
2023-01-17T13:21:50.559Z,2.45
2023-01-17T13:26:55.623Z,2.70
2023-01-17T13:32:06.377Z,3.90
2023-01-17T13:37:31.581Z,3.25
2023-01-17T13:42:57.613Z,4.95
2023-01-17T13:48:12.002Z,3.20
2023-01-17T13:53:29.115Z,3.75
2023-01-17T13:58:54.440Z,2.95
2023-01-17T14:03:59.400Z,2.85
2023-01-17T14:09:02.725Z,3.27
2023-01-17T14:14:35.905Z,2.27
2023-01-17T14:19:38.240Z,2.43
2023-01-17T14:25:00.426Z,2.12
2023-01-17T14:30:07.024Z,2.03
2023-01-17T14:35:22.839Z,2.00
2023-01-17T14:40:27.437Z,1.40
2023-01-17T14:45:32.158Z,1.40
2023-01-17T14:50:39.821Z,1.90
2023-01-17T14:55:47.909Z,1.30
2023-01-17T15:00:53.589Z,1.95
2023-01-17T15:05:57.507Z,1.65
2023-01-17T15:11:07.470Z,1.90
2023-01-17T15:16:33.264Z,1.25
2023-01-17T15:21:40.541Z,1.00
2023-01-17T15:26:46.007Z,1.10
2023-01-17T15:31:59.310Z,1.20
2023-01-17T15:37:08.068Z,1.65
2023-01-17T15:42:38.477Z,1.30
2023-01-17T15:47:41.002Z,1.20
2023-01-17T15:57:52.864Z,1.70
2023-01-17T16:08:24.176Z,0.68
2023-01-17T16:13:26.345Z,0.80
2023-01-17T16:18:28.523Z,1.20
2023-01-17T16:23:30.733Z,1.50
2023-01-17T16:28:32.918Z,1.55
2023-01-17T16:33:35.188Z,1.45
2023-01-17T16:38:37.555Z,1.65
2023-01-17T16:43:39.926Z,1.20
2023-01-17T16:48:42.068Z,1.08
2023-01-17T16:53:44.202Z,1.23
2023-01-17T16:58:46.324Z,1.45
2023-01-17T17:03:48.848Z,1.00
2023-01-17T17:13:53.274Z,2.13
2023-01-17T17:18:59.125Z,1.90
2023-01-17T17:24:02.101Z,1.60
2023-01-17T17:29:06.113Z,1.60
2023-01-17T17:34:10.831Z,1.90
2023-01-17T17:39:17.229Z,2.30
2023-01-17T17:44:19.344Z,2.00
2023-01-17T17:49:22.709Z,2.10
2023-01-17T17:54:27.267Z,3.00
2023-01-17T17:59:29.919Z,2.63
2023-01-17T18:04:32.512Z,3.00
2023-01-17T18:14:36.790Z,2.90
2023-01-17T18:19:39.099Z,2.80
2023-01-17T18:24:41.285Z,2.87
2023-01-17T18:29:43.388Z,3.53
2023-01-17T18:34:45.611Z,2.67
2023-01-17T18:39:47.747Z,2.55
2023-01-17T18:44:49.857Z,2.83
2023-01-17T18:49:53.591Z,1.92
2023-01-17T18:54:55.922Z,4.40
2023-01-17T18:59:58.075Z,2.33
2023-01-17T19:05:01.729Z,3.35
2023-01-17T19:10:04.113Z,2.70
2023-01-17T19:15:07.007Z,2.87
2023-01-17T19:20:09.826Z,2.90
2023-01-17T19:25:11.955Z,3.37
2023-01-17T19:30:14.229Z,4.15
2023-01-17T19:35:17.537Z,3.47
2023-01-17T19:40:20.356Z,4.10
2023-01-17T19:45:23.266Z,4.13
2023-01-17T19:50:25.382Z,3.80
2023-01-17T19:55:27.475Z,3.35
2023-01-17T20:00:30.526Z,3.55
2023-01-17T20:05:34.126Z,3.80
2023-01-17T20:10:36.212Z,3.60
2023-01-17T20:15:38.395Z,3.75
2023-01-17T20:20:56.343Z,5.28
2023-01-17T20:25:59.157Z,3.20
2023-01-17T20:31:09.121Z,3.37
2023-01-17T20:36:14.863Z,3.50
2023-01-17T20:41:24.931Z,4.20
2023-01-17T20:46:35.266Z,3.50
2023-01-17T20:51:38.822Z,3.65
2023-01-17T20:56:41.913Z,3.60
2023-01-17T21:01:44.988Z,3.35
2023-01-17T21:06:47.418Z,3.05
2023-01-17T21:11:50.417Z,3.12
2023-01-17T21:16:52.531Z,3.97
2023-01-17T21:21:56.168Z,3.05
2023-01-17T21:26:58.347Z,3.20
2023-01-17T21:32:00.483Z,3.67
2023-01-17T21:37:02.620Z,3.53
2023-01-17T21:42:04.809Z,3.10
2023-01-17T21:47:07.362Z,3.33
2023-01-17T21:52:11.614Z,3.07
2023-01-17T21:57:34.618Z,3.33
2023-01-17T22:02:36.692Z,4.03
2023-01-17T22:07:39.026Z,3.62
2023-01-17T22:12:41.527Z,3.85
2023-01-17T22:22:48.292Z,3.80
2023-01-17T22:27:51.133Z,3.10
2023-01-17T22:32:55.910Z,3.60
2023-01-17T22:37:58.705Z,3.50
2023-01-17T22:43:00.773Z,3.60
2023-01-17T22:48:02.883Z,3.37
2023-01-17T22:53:04.955Z,3.75
2023-01-17T22:58:07.027Z,3.50
2023-01-17T23:03:09.240Z,3.72
2023-01-17T23:08:11.360Z,3.83
2023-01-17T23:13:13.459Z,3.65
2023-01-17T23:18:34.193Z,3.78
2023-01-17T23:23:36.408Z,3.40
2023-01-17T23:28:38.472Z,3.60
2023-01-17T23:33:40.591Z,3.50
2023-01-17T23:38:43.995Z,3.05
2023-01-17T23:43:51.629Z,3.80
2023-01-17T23:48:54.854Z,3.90
2023-01-17T23:54:05.163Z,4.00
2023-01-17T23:59:07.321Z,3.17
